Time;durP1;ratioP1;P1;durP2;ratioP2;P2;SDS_P1;SDS_P2;PMS_P1;PMS_P2;Temp;Humidity;BMP_temperature;BMP_pressure;BME280_temperature;BME280_humidity;BME280_pressure;Samples;Min_cycle;Max_cycle;Signal;HPM_P1;HPM_P2
2022/03/27 00:00:58;;;;;;;;;;;20.10;99.90;;;;;;5054476;28;20271;-75
2022/03/27 00:03:25;;;;;;;;;;;20.10;99.90;;;;;;5054769;28;19913;-75
2022/03/27 00:05:52;;;;;;;;;;;20.20;99.90;;;;;;5053584;28;19909;-74
2022/03/27 00:08:18;;;;;;;;;;;20.20;99.90;;;;;;5054450;28;19913;-75
2022/03/27 00:13:30;;;;;;;;;;;20.20;99.90;;;;;;5054911;28;19916;-74
2022/03/27 00:15:56;;;;;;;;;;;20.20;99.90;;;;;;5054065;28;19909;-75
2022/03/27 00:18:23;;;;;;;;;;;20.30;99.90;;;;;;5054288;28;19913;-74
2022/03/27 00:20:51;;;;;;;;;;;20.30;99.90;;;;;;5054374;28;19963;-74
2022/03/27 00:23:17;;;;;;;;;;;20.40;99.90;;;;;;5054575;28;19920;-74
2022/03/27 00:25:45;;;;;;;;;;;20.40;99.90;;;;;;5054440;28;19920;-74
2022/03/27 00:28:12;;;;;;;;;;;20.60;99.90;;;;;;5054097;28;19987;-75
2022/03/27 00:30:39;;;;;;;;;;;20.70;99.90;;;;;;5053877;28;19955;-74
2022/03/27 00:33:05;;;;;;;;;;;20.80;99.90;;;;;;5054344;28;19962;-74
2022/03/27 00:35:32;;;;;;;;;;;20.80;99.90;;;;;;5054304;28;19962;-74
2022/03/27 00:37:59;;;;;;;;;;;20.70;99.90;;;;;;5054117;28;19917;-74
2022/03/27 00:40:26;;;;;;;;;;;20.60;99.90;;;;;;5053759;28;19915;-74
2022/03/27 00:42:52;;;;;;;;;;;20.70;99.90;;;;;;5054204;28;20391;-74
2022/03/27 00:45:19;;;;;;;;;;;20.90;99.90;;;;;;5053507;28;19979;-74
2022/03/27 00:47:46;;;;;;;;;;;20.90;99.90;;;;;;5054084;28;19925;-74
2022/03/27 00:50:12;;;;;;;;;;;21.00;99.90;;;;;;5054078;28;19916;-74
2022/03/27 00:52:39;;;;;;;;;;;21.10;99.90;;;;;;5036036;28;19955;-74
2022/03/27 00:55:05;;;;;;;;;;;21.00;99.90;;;;;;5053909;28;19909;-75
2022/03/27 00:57:32;;;;;;;;;;;20.90;99.90;;;;;;5053979;28;19909;-75
2022/03/27 00:59:59;;;;;;;;;;;20.80;99.90;;;;;;5053308;28;19916;-74
2022/03/27 01:02:26;;;;;;;;;;;20.80;99.90;;;;;;5053609;28;19908;-74
2022/03/27 01:04:54;;;;;;;;;;;20.70;99.90;;;;;;5053487;28;20415;-75
2022/03/27 01:07:20;;;;;;;;;;;20.70;99.90;;;;;;5053410;28;19917;-74
2022/03/27 01:09:47;;;;;;;;;;;20.70;99.90;;;;;;5053789;28;19913;-74
2022/03/27 01:12:23;;;;;;;;;;;20.60;99.90;;;;;;5053478;28;19951;-74
2022/03/27 01:14:50;;;;;;;;;;;20.60;99.90;;;;;;5053488;28;19909;-73
2022/03/27 01:17:18;;;;;;;;;;;20.40;99.90;;;;;;5053226;28;19909;-73
2022/03/27 01:19:50;;;;;;;;;;;20.30;99.90;;;;;;5053376;28;19956;-73
2022/03/27 01:22:17;;;;;;;;;;;20.10;99.90;;;;;;5053468;28;20016;-73
2022/03/27 01:24:44;;;;;;;;;;;20.10;99.90;;;;;;5053293;28;19909;-74
2022/03/27 01:27:11;;;;;;;;;;;20.20;99.90;;;;;;5053344;28;19917;-74
2022/03/27 01:29:38;;;;;;;;;;;20.20;99.90;;;;;;5053441;28;19913;-74
2022/03/27 01:32:06;;;;;;;;;;;20.20;99.90;;;;;;5053395;28;19919;-74
2022/03/27 01:34:32;;;;;;;;;;;20.10;99.90;;;;;;5053315;28;19942;-74
2022/03/27 01:37:06;;;;;;;;;;;20.20;99.90;;;;;;5053319;28;19909;-74
2022/03/27 01:39:32;;;;;;;;;;;20.20;99.90;;;;;;5053019;28;19996;-73
2022/03/27 01:41:59;;;;;;;;;;;20.00;99.90;;;;;;5053296;28;19998;-75
2022/03/27 01:44:26;;;;;;;;;;;20.00;99.90;;;;;;5053170;28;19916;-75
2022/03/27 01:46:53;;;;;;;;;;;19.90;99.90;;;;;;5053227;28;20019;-76
2022/03/27 01:49:19;;;;;;;;;;;19.90;99.90;;;;;;5053020;28;20351;-75
2022/03/27 01:51:47;;;;;;;;;;;20.00;99.90;;;;;;5053078;28;19908;-75
2022/03/27 01:54:14;;;;;;;;;;;20.10;99.90;;;;;;5052788;28;19908;-75
2022/03/27 01:56:41;;;;;;;;;;;20.20;99.90;;;;;;5053136;28;20390;-74
2022/03/27 01:59:09;;;;;;;;;;;20.30;99.90;;;;;;5053257;28;19909;-76
2022/03/27 02:01:36;;;;;;;;;;;20.40;99.90;;;;;;5053156;28;19916;-75
2022/03/27 02:04:03;;;;;;;;;;;20.40;99.90;;;;;;5052817;28;19967;-74
2022/03/27 02:06:31;;;;;;;;;;;20.40;99.90;;;;;;5052601;28;20347;-76
2022/03/27 02:08:59;;;;;;;;;;;20.50;99.90;;;;;;5052956;28;20363;-73
2022/03/27 02:11:26;;;;;;;;;;;20.50;99.90;;;;;;5052895;28;19909;-73
2022/03/27 02:13:52;;;;;;;;;;;20.40;99.90;;;;;;5053194;28;19909;-74
2022/03/27 02:16:19;;;;;;;;;;;20.50;99.90;;;;;;5052691;28;19982;-74
2022/03/27 02:18:46;;;;;;;;;;;20.50;99.90;;;;;;5052766;28;19972;-74
2022/03/27 02:21:12;;;;;;;;;;;20.60;99.90;;;;;;5052683;28;19920;-74
2022/03/27 02:23:39;;;;;;;;;;;20.70;99.90;;;;;;5053009;28;19948;-74
2022/03/27 02:26:06;;;;;;;;;;;20.60;99.90;;;;;;5052877;28;19912;-74
2022/03/27 02:28:33;;;;;;;;;;;20.70;99.90;;;;;;5054815;28;20409;-75
2022/03/27 02:31:00;;;;;;;;;;;20.80;99.90;;;;;;5056762;28;20003;-74
2022/03/27 02:33:26;;;;;;;;;;;20.60;99.90;;;;;;5056642;28;19910;-74
2022/03/27 02:35:53;;;;;;;;;;;20.70;99.90;;;;;;5056780;28;19913;-74
2022/03/27 02:38:20;;;;;;;;;;;20.70;99.90;;;;;;5056503;28;19912;-74
2022/03/27 02:40:47;;;;;;;;;;;20.80;99.90;;;;;;5056703;28;19908;-76
2022/03/27 02:43:13;;;;;;;;;;;20.70;99.90;;;;;;5056667;28;19909;-75
2022/03/27 02:45:40;;;;;;;;;;;20.70;99.90;;;;;;5038587;28;19951;-75
2022/03/27 02:48:07;;;;;;;;;;;20.70;99.90;;;;;;5056037;28;20379;-75
2022/03/27 02:50:36;;;;;;;;;;;20.70;99.90;;;;;;5056565;28;19909;-75
2022/03/27 02:53:03;;;;;;;;;;;20.80;99.90;;;;;;5056338;28;20413;-75
2022/03/27 02:55:30;;;;;;;;;;;20.80;99.90;;;;;;5056392;28;20244;-75
2022/03/27 02:57:57;;;;;;;;;;;20.80;99.90;;;;;;5056283;28;19915;-75
2022/03/27 03:00:25;;;;;;;;;;;20.80;99.90;;;;;;5055966;28;19916;-75
2022/03/27 03:02:53;;;;;;;;;;;20.80;99.90;;;;;;5055714;28;20374;-75
2022/03/27 03:05:20;;;;;;;;;;;20.70;99.90;;;;;;5056123;28;20283;-75
2022/03/27 03:07:47;;;;;;;;;;;20.80;99.90;;;;;;5056135;28;19916;-75
2022/03/27 03:10:16;;;;;;;;;;;20.70;99.90;;;;;;5055855;28;19909;-75
2022/03/27 03:12:43;;;;;;;;;;;20.70;99.90;;;;;;5056130;28;20421;-75
2022/03/27 03:15:10;;;;;;;;;;;20.80;99.90;;;;;;5056166;28;19909;-75
2022/03/27 03:17:37;;;;;;;;;;;20.90;99.90;;;;;;5055627;28;20012;-75
2022/03/27 03:20:04;;;;;;;;;;;21.00;99.90;;;;;;5055823;28;19968;-75
2022/03/27 03:22:31;;;;;;;;;;;21.10;99.90;;;;;;5055773;28;20298;-75
2022/03/27 03:24:58;;;;;;;;;;;21.20;99.90;;;;;;5055894;28;20003;-75
2022/03/27 03:27:25;;;;;;;;;;;21.30;99.90;;;;;;5055631;28;19921;-75
2022/03/27 03:29:51;;;;;;;;;;;21.40;99.90;;;;;;5055558;28;19962;-75
2022/03/27 03:32:18;;;;;;;;;;;21.30;99.90;;;;;;5055298;28;19963;-75
2022/03/27 03:34:44;;;;;;;;;;;21.30;99.90;;;;;;5055291;28;19959;-75
2022/03/27 03:37:11;;;;;;;;;;;21.30;99.90;;;;;;5055614;28;20267;-75
2022/03/27 03:39:38;;;;;;;;;;;21.40;99.90;;;;;;5054980;28;20406;-75
2022/03/27 03:42:05;;;;;;;;;;;21.30;99.90;;;;;;5055555;28;20291;-73
2022/03/27 03:44:31;;;;;;;;;;;21.40;99.90;;;;;;5055207;28;19916;-73
2022/03/27 03:46:58;;;;;;;;;;;21.30;99.90;;;;;;5055341;28;20356;-74
2022/03/27 03:49:25;;;;;;;;;;;21.40;99.90;;;;;;5055211;28;19920;-74
2022/03/27 03:51:52;;;;;;;;;;;21.50;99.90;;;;;;5036271;28;19936;-74
2022/03/27 03:54:19;;;;;;;;;;;21.50;99.90;;;;;;5020362;28;19910;-74
2022/03/27 03:56:45;;;;;;;;;;;21.50;99.90;;;;;;5014511;28;19909;-74
2022/03/27 03:59:12;;;;;;;;;;;21.50;99.90;;;;;;5014838;28;19909;-75
2022/03/27 04:01:39;;;;;;;;;;;21.50;99.90;;;;;;4996923;28;19913;-75
2022/03/27 04:04:06;;;;;;;;;;;21.50;99.90;;;;;;5014226;28;20004;-75
2022/03/27 04:06:33;;;;;;;;;;;21.40;99.90;;;;;;5014389;28;19921;-75
2022/03/27 04:09:00;;;;;;;;;;;21.40;99.90;;;;;;5014492;28;19996;-74
2022/03/27 04:11:26;;;;;;;;;;;21.30;99.90;;;;;;5014332;28;19963;-72
2022/03/27 04:13:53;;;;;;;;;;;21.30;99.90;;;;;;5014358;28;20303;-73
2022/03/27 04:16:20;;;;;;;;;;;21.30;99.90;;;;;;5013903;28;20471;-73
2022/03/27 04:18:47;;;;;;;;;;;21.20;99.90;;;;;;5014339;28;19956;-73
2022/03/27 04:21:13;;;;;;;;;;;21.20;99.90;;;;;;5014117;28;19922;-73
2022/03/27 04:23:40;;;;;;;;;;;21.10;99.90;;;;;;5014255;28;19913;-73
2022/03/27 04:26:07;;;;;;;;;;;21.10;99.90;;;;;;5014051;28;19997;-72
2022/03/27 04:28:33;;;;;;;;;;;20.90;99.90;;;;;;5014149;28;19921;-75
2022/03/27 04:31:00;;;;;;;;;;;20.70;99.90;;;;;;5014081;28;19909;-74
2022/03/27 04:33:27;;;;;;;;;;;20.60;99.90;;;;;;5013985;28;19917;-75
2022/03/27 04:35:53;;;;;;;;;;;20.50;99.90;;;;;;5012789;28;20276;-75
2022/03/27 04:38:20;;;;;;;;;;;20.50;99.90;;;;;;5013943;28;20368;-75
2022/03/27 04:40:47;;;;;;;;;;;20.40;99.90;;;;;;5013841;28;19931;-75
2022/03/27 04:43:14;;;;;;;;;;;20.40;99.90;;;;;;5014030;28;20016;-75
2022/03/27 04:45:40;;;;;;;;;;;20.30;99.90;;;;;;5013842;28;19917;-76
2022/03/27 04:48:07;;;;;;;;;;;20.30;99.90;;;;;;5013358;28;19917;-75
2022/03/27 04:50:34;;;;;;;;;;;20.30;99.90;;;;;;5027586;28;20024;-75
2022/03/27 04:53:00;;;;;;;;;;;20.30;99.90;;;;;;5033194;28;20004;-77
2022/03/27 04:55:27;;;;;;;;;;;20.30;99.90;;;;;;5033277;28;20355;-75
2022/03/27 04:57:54;;;;;;;;;;;20.30;99.90;;;;;;5033200;28;20311;-76
2022/03/27 05:00:21;;;;;;;;;;;20.30;99.90;;;;;;5032901;28;20283;-75
2022/03/27 05:02:47;;;;;;;;;;;20.20;99.90;;;;;;5033089;28;19913;-75
2022/03/27 05:05:15;;;;;;;;;;;20.10;99.90;;;;;;5031677;28;19944;-74
2022/03/27 05:07:43;;;;;;;;;;;20.10;99.90;;;;;;5014530;28;20395;-75
2022/03/27 05:10:10;;;;;;;;;;;20.00;99.90;;;;;;5031310;28;19967;-75
2022/03/27 05:12:37;;;;;;;;;;;20.10;99.90;;;;;;5032940;28;19910;-75
2022/03/27 05:15:04;;;;;;;;;;;20.10;99.90;;;;;;5032978;28;20245;-75
2022/03/27 05:17:31;;;;;;;;;;;20.10;99.90;;;;;;5032778;28;19909;-75
2022/03/27 05:19:58;;;;;;;;;;;20.20;99.90;;;;;;5033093;28;20331;-75
2022/03/27 05:22:25;;;;;;;;;;;20.10;99.90;;;;;;5032667;28;19956;-75
2022/03/27 05:24:52;;;;;;;;;;;20.10;99.90;;;;;;5032916;28;19913;-75
2022/03/27 05:27:19;;;;;;;;;;;20.00;99.90;;;;;;5032797;28;20268;-75
2022/03/27 05:29:45;;;;;;;;;;;20.00;99.90;;;;;;5032810;28;19909;-75
2022/03/27 05:32:13;;;;;;;;;;;20.10;99.90;;;;;;5032378;28;19962;-75
2022/03/27 05:34:40;;;;;;;;;;;20.00;99.90;;;;;;5032626;28;19909;-76
2022/03/27 05:37:06;;;;;;;;;;;19.90;99.90;;;;;;5032595;28;19909;-76
2022/03/27 05:39:33;;;;;;;;;;;19.90;99.90;;;;;;5032785;28;19909;-73
2022/03/27 05:42:00;;;;;;;;;;;20.00;99.90;;;;;;5032585;28;19909;-73
2022/03/27 05:44:26;;;;;;;;;;;20.00;99.90;;;;;;5032282;28;19909;-74
2022/03/27 05:46:53;;;;;;;;;;;20.10;99.90;;;;;;5032333;28;19925;-73
2022/03/27 05:49:20;;;;;;;;;;;20.10;99.90;;;;;;5032323;28;20332;-73
2022/03/27 05:51:46;;;;;;;;;;;20.10;99.90;;;;;;5032503;28;20276;-74
2022/03/27 05:54:13;;;;;;;;;;;20.10;99.90;;;;;;5032238;28;20004;-73
2022/03/27 05:56:40;;;;;;;;;;;20.00;99.90;;;;;;5032289;28;20028;-74
2022/03/27 05:59:06;;;;;;;;;;;20.00;99.90;;;;;;5032558;28;19909;-74
2022/03/27 06:01:33;;;;;;;;;;;20.00;99.90;;;;;;5032348;28;19909;-74
2022/03/27 06:03:59;;;;;;;;;;;20.00;99.90;;;;;;5034849;28;19909;-74
2022/03/27 06:06:29;;;;;;;;;;;20.10;99.90;;;;;;5036166;28;19913;-75
2022/03/27 06:08:57;;;;;;;;;;;20.10;99.90;;;;;;5036564;28;19917;-73
2022/03/27 06:11:24;;;;;;;;;;;20.20;99.90;;;;;;5036363;28;19995;-74
2022/03/27 06:13:51;;;;;;;;;;;20.20;99.90;;;;;;5036342;28;19909;-73
2022/03/27 06:16:17;;;;;;;;;;;20.20;99.90;;;;;;5036144;28;19909;-73
2022/03/27 06:18:44;;;;;;;;;;;20.10;99.90;;;;;;5035957;28;19909;-73
2022/03/27 06:21:11;;;;;;;;;;;20.20;99.90;;;;;;5036122;28;19921;-74
2022/03/27 06:23:37;;;;;;;;;;;20.20;99.90;;;;;;5036418;28;19909;-73
2022/03/27 06:26:04;;;;;;;;;;;20.20;99.90;;;;;;5035807;28;19910;-73
2022/03/27 06:28:31;;;;;;;;;;;20.20;99.90;;;;;;5035723;28;19909;-73
2022/03/27 06:30:57;;;;;;;;;;;20.30;99.90;;;;;;5035806;28;19909;-73
2022/03/27 06:33:24;;;;;;;;;;;20.30;99.90;;;;;;5035695;28;19967;-74
2022/03/27 06:35:51;;;;;;;;;;;20.30;99.90;;;;;;5035824;28;19952;-73
2022/03/27 06:38:18;;;;;;;;;;;20.30;99.90;;;;;;5017876;28;19931;-74
2022/03/27 06:40:45;;;;;;;;;;;20.30;99.90;;;;;;5035749;28;19913;-75
2022/03/27 06:43:12;;;;;;;;;;;20.30;99.90;;;;;;5035912;28;20325;-74
2022/03/27 06:45:39;;;;;;;;;;;20.30;99.90;;;;;;5035411;28;20295;-74
2022/03/27 06:48:05;;;;;;;;;;;20.30;99.90;;;;;;5035398;28;19921;-73
2022/03/27 06:50:32;;;;;;;;;;;20.20;99.90;;;;;;5035471;28;19909;-73
2022/03/27 06:52:59;;;;;;;;;;;20.20;99.90;;;;;;5035473;28;19910;-73
2022/03/27 06:55:27;;;;;;;;;;;20.30;99.90;;;;;;5035559;28;19909;-72
2022/03/27 06:57:54;;;;;;;;;;;20.20;99.90;;;;;;5035549;28;19910;-72
2022/03/27 07:03:06;;;;;;;;;;;20.20;99.90;;;;;;5035354;28;19916;-72
2022/03/27 07:05:41;;;;;;;;;;;20.10;99.90;;;;;;5035317;28;20276;-72
2022/03/27 07:08:09;;;;;;;;;;;20.20;99.90;;;;;;5034958;28;19960;-72
2022/03/27 07:10:37;;;;;;;;;;;20.10;99.90;;;;;;5035165;28;19913;-72
2022/03/27 07:13:04;;;;;;;;;;;20.20;99.90;;;;;;5017087;28;20343;-72
2022/03/27 07:15:31;;;;;;;;;;;20.10;99.90;;;;;;5034681;28;19924;-72
2022/03/27 07:17:59;;;;;;;;;;;20.20;99.90;;;;;;5034874;28;20272;-73
2022/03/27 07:20:27;;;;;;;;;;;20.20;99.90;;;;;;5034656;28;19964;-73
2022/03/27 07:22:54;;;;;;;;;;;20.20;99.90;;;;;;5034945;28;19909;-73
2022/03/27 07:25:22;;;;;;;;;;;20.20;99.90;;;;;;5034961;28;20367;-74
2022/03/27 07:27:49;;;;;;;;;;;20.20;99.90;;;;;;5035143;28;19925;-74
2022/03/27 07:30:15;;;;;;;;;;;20.20;99.90;;;;;;5034750;28;19945;-75
2022/03/27 07:32:42;;;;;;;;;;;20.20;99.90;;;;;;5034435;28;19913;-74
2022/03/27 07:35:09;;;;;;;;;;;20.20;99.90;;;;;;5034495;28;19909;-74
2022/03/27 07:37:37;;;;;;;;;;;20.20;99.90;;;;;;5034661;28;19913;-74
2022/03/27 07:40:06;;;;;;;;;;;20.20;99.90;;;;;;5034714;28;19913;-74
2022/03/27 07:42:34;;;;;;;;;;;20.10;99.90;;;;;;5034565;28;19915;-74
2022/03/27 07:45:01;;;;;;;;;;;20.10;99.90;;;;;;5034011;28;19910;-74
2022/03/27 07:47:27;;;;;;;;;;;20.10;99.90;;;;;;5034184;28;19917;-74
2022/03/27 07:49:54;;;;;;;;;;;20.10;99.90;;;;;;5034565;28;19909;-75
2022/03/27 07:52:22;;;;;;;;;;;20.10;99.90;;;;;;5033952;28;19916;-74
2022/03/27 07:54:52;;;;;;;;;;;20.10;99.90;;;;;;5034278;28;20283;-73
2022/03/27 07:57:20;;;;;;;;;;;20.00;99.90;;;;;;5034318;28;20386;-74
2022/03/27 07:59:47;;;;;;;;;;;20.10;99.90;;;;;;5034531;28;19932;-73
2022/03/27 08:02:15;;;;;;;;;;;20.10;99.90;;;;;;5034010;28;19975;-74
2022/03/27 08:04:41;;;;;;;;;;;20.00;99.90;;;;;;5034386;28;19913;-73
2022/03/27 08:07:08;;;;;;;;;;;20.00;99.90;;;;;;5034030;28;19964;-74
2022/03/27 08:09:35;;;;;;;;;;;20.00;99.90;;;;;;5034096;28;20371;-74
2022/03/27 08:12:02;;;;;;;;;;;20.00;99.90;;;;;;5034329;28;19909;-76
2022/03/27 08:14:31;;;;;;;;;;;20.00;99.90;;;;;;5034197;28;19950;-74
2022/03/27 08:16:59;;;;;;;;;;;20.00;99.90;;;;;;5034098;28;19909;-74
2022/03/27 08:19:25;;;;;;;;;;;20.00;99.90;;;;;;5033939;28;20007;-74
2022/03/27 08:21:53;;;;;;;;;;;20.00;99.90;;;;;;5034001;28;19920;-75
2022/03/27 08:24:20;;;;;;;;;;;19.90;99.90;;;;;;5033865;28;19910;-75
2022/03/27 08:26:56;;;;;;;;;;;20.00;99.90;;;;;;5033032;28;19956;-75
2022/03/27 08:29:41;;;;;;;;;;;19.90;99.90;;;;;;5022007;28;19937;-75
2022/03/27 08:32:10;;;;;;;;;;;19.90;99.90;;;;;;5014386;28;19913;-74
2022/03/27 08:34:37;;;;;;;;;;;19.90;99.90;;;;;;5014920;28;19916;-74
2022/03/27 08:37:05;;;;;;;;;;;19.90;99.90;;;;;;5014107;28;19916;-75
2022/03/27 08:39:32;;;;;;;;;;;19.90;99.90;;;;;;5014647;28;19916;-74
2022/03/27 08:41:59;;;;;;;;;;;19.90;99.90;;;;;;5014537;28;19915;-75
2022/03/27 08:44:27;;;;;;;;;;;19.90;99.90;;;;;;5014277;28;19936;-75
2022/03/27 08:46:55;;;;;;;;;;;20.00;99.90;;;;;;5014388;28;19913;-76
2022/03/27 08:49:24;;;;;;;;;;;20.00;99.90;;;;;;5014711;28;19996;-75
2022/03/27 08:52:04;;;;;;;;;;;20.00;99.90;;;;;;5014469;28;19973;-74
2022/03/27 08:54:53;;;;;;;;;;;20.00;99.90;;;;;;5014151;28;19931;-73
2022/03/27 08:57:23;;;;;;;;;;;19.50;99.90;;;;;;5014960;28;19992;-73
2022/03/27 08:59:52;;;;;;;;;;;19.30;99.90;;;;;;5013869;28;20324;-74
2022/03/27 09:02:22;;;;;;;;;;;19.20;99.90;;;;;;5013999;28;20009;-73
2022/03/27 09:04:59;;;;;;;;;;;19.10;99.90;;;;;;5014285;28;20327;-73
2022/03/27 09:07:28;;;;;;;;;;;19.10;99.90;;;;;;5013578;28;19917;-73
2022/03/27 09:09:55;;;;;;;;;;;19.10;99.90;;;;;;5014164;28;20379;-74
2022/03/27 09:12:22;;;;;;;;;;;19.10;99.90;;;;;;5013910;28;19917;-73
2022/03/27 09:14:49;;;;;;;;;;;19.10;99.90;;;;;;5014137;28;20403;-74
2022/03/27 09:17:16;;;;;;;;;;;19.10;99.90;;;;;;5013806;28;20041;-73
2022/03/27 09:19:46;;;;;;;;;;;19.10;99.90;;;;;;5013850;28;19910;-75
2022/03/27 09:22:15;;;;;;;;;;;19.10;99.90;;;;;;5013358;28;19918;-73
2022/03/27 09:24:42;;;;;;;;;;;19.00;99.90;;;;;;5013350;28;19914;-74
2022/03/27 09:27:09;;;;;;;;;;;19.00;99.90;;;;;;5013643;28;19951;-74
2022/03/27 09:29:54;;;;;;;;;;;19.10;99.90;;;;;;5013784;28;19918;-74
2022/03/27 09:32:30;;;;;;;;;;;19.10;99.90;;;;;;5012996;28;19909;-74
2022/03/27 09:35:03;;;;;;;;;;;19.10;99.90;;;;;;5013311;28;19910;-74
2022/03/27 09:37:30;;;;;;;;;;;19.00;99.90;;;;;;5012983;28;19924;-74
2022/03/27 09:39:57;;;;;;;;;;;19.10;99.90;;;;;;5013739;28;19968;-73
2022/03/27 09:42:25;;;;;;;;;;;19.10;99.90;;;;;;5013437;28;19909;-73
2022/03/27 09:45:09;;;;;;;;;;;19.10;99.90;;;;;;5013635;28;19964;-74
2022/03/27 09:47:35;;;;;;;;;;;19.20;99.90;;;;;;5013070;28;19925;-74
2022/03/27 09:50:02;;;;;;;;;;;19.20;99.90;;;;;;5013579;28;19909;-74
2022/03/27 09:52:29;;;;;;;;;;;19.20;99.90;;;;;;5011799;28;19910;-74
2022/03/27 09:55:08;;;;;;;;;;;19.20;99.90;;;;;;5013436;28;19913;-74
2022/03/27 09:57:38;;;;;;;;;;;19.20;99.90;;;;;;5013348;28;20382;-74
2022/03/27 10:00:15;;;;;;;;;;;19.20;99.90;;;;;;5013631;28;19914;-74
2022/03/27 10:02:43;;;;;;;;;;;19.20;99.90;;;;;;5013480;28;20004;-73
2022/03/27 10:05:14;;;;;;;;;;;19.20;99.90;;;;;;5013507;28;19988;-74
2022/03/27 10:07:42;;;;;;;;;;;19.20;99.90;;;;;;5012657;28;19929;-75
2022/03/27 10:10:10;;;;;;;;;;;19.10;99.90;;;;;;5013188;28;19909;-73
2022/03/27 10:12:38;;;;;;;;;;;19.20;99.90;;;;;;5013317;28;20276;-74
2022/03/27 10:15:07;;;;;;;;;;;19.20;99.90;;;;;;5013227;28;19913;-74
2022/03/27 10:17:34;;;;;;;;;;;19.20;99.90;;;;;;5012595;28;20380;-73
2022/03/27 10:20:05;;;;;;;;;;;19.10;99.90;;;;;;5013210;28;19944;-73
2022/03/27 10:22:35;;;;;;;;;;;19.20;99.90;;;;;;5012405;28;20368;-76
2022/03/27 10:25:03;;;;;;;;;;;19.10;99.90;;;;;;5013079;28;19910;-74
2022/03/27 10:27:33;;;;;;;;;;;19.20;99.90;;;;;;5013284;28;20017;-75
2022/03/27 10:30:00;;;;;;;;;;;19.10;99.90;;;;;;5013149;28;19949;-75
2022/03/27 10:32:27;;;;;;;;;;;19.10;99.90;;;;;;5012933;28;20308;-75
2022/03/27 10:34:53;;;;;;;;;;;19.10;99.90;;;;;;5012454;28;19963;-75
2022/03/27 10:37:23;;;;;;;;;;;19.10;99.90;;;;;;5013265;28;19913;-73
2022/03/27 10:39:53;;;;;;;;;;;19.10;99.90;;;;;;5012660;28;20288;-75
2022/03/27 10:42:22;;;;;;;;;;;19.00;99.90;;;;;;5012374;28;19910;-76
2022/03/27 10:44:52;;;;;;;;;;;19.10;99.90;;;;;;5012885;28;19952;-75
2022/03/27 10:47:20;;;;;;;;;;;19.00;99.90;;;;;;5012626;28;20283;-74
2022/03/27 10:50:02;;;;;;;;;;;19.00;99.90;;;;;;5015215;28;19914;-75
2022/03/27 10:52:30;;;;;;;;;;;19.10;99.90;;;;;;5016474;28;19921;-75
2022/03/27 10:55:01;;;;;;;;;;;19.00;99.90;;;;;;5016098;28;19910;-74
2022/03/27 10:57:29;;;;;;;;;;;19.00;99.90;;;;;;5016603;28;19963;-74
2022/03/27 10:59:57;;;;;;;;;;;19.00;99.90;;;;;;5016656;28;19909;-74
2022/03/27 11:02:42;;;;;;;;;;;19.10;99.90;;;;;;5016357;28;19910;-74
2022/03/27 11:05:08;;;;;;;;;;;19.10;99.90;;;;;;5016568;28;19992;-76
2022/03/27 11:07:35;;;;;;;;;;;19.10;99.90;;;;;;5016431;28;19925;-74
2022/03/27 11:10:01;;;;;;;;;;;19.10;99.90;;;;;;5016435;28;19910;-75
2022/03/27 11:12:29;;;;;;;;;;;19.10;99.90;;;;;;5016180;28;20269;-74
2022/03/27 11:14:58;;;;;;;;;;;19.20;99.90;;;;;;5015977;28;19937;-74
2022/03/27 11:17:35;;;;;;;;;;;19.10;99.90;;;;;;5016103;28;19917;-74
2022/03/27 11:20:03;;;;;;;;;;;19.20;99.90;;;;;;5016081;28;19921;-73
2022/03/27 11:22:52;;;;;;;;;;;19.20;99.90;;;;;;5016007;28;19949;-74
2022/03/27 11:25:38;;;;;;;;;;;19.30;99.90;;;;;;5015334;28;20209;-75
2022/03/27 11:28:07;;;;;;;;;;;19.30;99.90;;;;;;5015759;28;20516;-74
2022/03/27 11:30:40;;;;;;;;;;;19.40;99.90;;;;;;5015671;28;19916;-74
2022/03/27 11:33:20;;;;;;;;;;;19.40;99.90;;;;;;5015846;28;19910;-75
2022/03/27 11:36:04;;;;;;;;;;;19.40;99.90;;;;;;5015749;28;19917;-73
2022/03/27 11:38:31;;;;;;;;;;;19.40;99.90;;;;;;5015507;28;20359;-73
2022/03/27 11:41:17;;;;;;;;;;;19.40;99.90;;;;;;5015785;28;20017;-74
2022/03/27 11:43:44;;;;;;;;;;;19.30;99.90;;;;;;5015505;28;19917;-73
2022/03/27 11:46:19;;;;;;;;;;;19.30;99.90;;;;;;5015170;28;19910;-74
2022/03/27 11:48:56;;;;;;;;;;;19.30;99.90;;;;;;5015611;28;19921;-74
2022/03/27 11:51:24;;;;;;;;;;;19.30;99.90;;;;;;5015551;28;19909;-75
2022/03/27 11:53:52;;;;;;;;;;;19.30;99.90;;;;;;5015520;28;20036;-74
2022/03/27 11:56:19;;;;;;;;;;;19.30;99.90;;;;;;5015333;28;20370;-75
2022/03/27 11:59:05;;;;;;;;;;;19.30;99.90;;;;;;5015308;28;19914;-75
2022/03/27 12:01:32;;;;;;;;;;;19.40;99.90;;;;;;5015026;28;19917;-74
2022/03/27 12:03:59;;;;;;;;;;;19.30;99.90;;;;;;5015301;28;20374;-74
2022/03/27 12:06:27;;;;;;;;;;;19.30;99.90;;;;;;5014931;28;20296;-75
2022/03/27 12:08:54;;;;;;;;;;;19.30;99.90;;;;;;5015134;28;19920;-74
2022/03/27 12:11:23;;;;;;;;;;;19.30;99.90;;;;;;5015054;28;19909;-72
2022/03/27 12:13:50;;;;;;;;;;;19.30;99.90;;;;;;5015169;28;20004;-72
2022/03/27 12:16:20;;;;;;;;;;;19.30;99.90;;;;;;5014743;28;19915;-74
2022/03/27 12:18:50;;;;;;;;;;;19.30;99.90;;;;;;5014948;28;20253;-75
2022/03/27 12:21:22;;;;;;;;;;;19.30;99.90;;;;;;5014696;28;19922;-73
2022/03/27 12:23:51;;;;;;;;;;;19.40;99.90;;;;;;5015069;28;19913;-72
2022/03/27 12:31:54;;;;;;;;;;;19.40;99.90;;;;;;5014906;28;20015;-75
2022/03/27 12:34:21;;;;;;;;;;;19.40;99.90;;;;;;5014843;28;19909;-74
2022/03/27 12:37:16;;;;;;;;;;;19.50;99.90;;;;;;5014838;28;20025;-74
2022/03/27 12:39:49;;;;;;;;;;;19.40;99.90;;;;;;5012418;28;19924;-73
2022/03/27 12:42:37;;;;;;;;;;;19.40;99.90;;;;;;5014400;28;19972;-73
2022/03/27 12:45:11;;;;;;;;;;;19.40;99.90;;;;;;5014631;28;20281;-73
2022/03/27 12:47:39;;;;;;;;;;;19.40;99.90;;;;;;5013084;28;20376;-75
2022/03/27 12:50:07;;;;;;;;;;;19.30;99.90;;;;;;5014587;28;19963;-73
2022/03/27 12:52:34;;;;;;;;;;;19.30;99.90;;;;;;5014288;28;19913;-73
2022/03/27 12:55:05;;;;;;;;;;;19.30;99.90;;;;;;5014225;28;19996;-74
2022/03/27 12:57:50;;;;;;;;;;;19.30;99.90;;;;;;5014435;28;19910;-74
2022/03/27 13:00:17;;;;;;;;;;;19.30;99.90;;;;;;5014076;28;19910;-73
2022/03/27 13:02:44;;;;;;;;;;;19.40;99.90;;;;;;5014284;28;19909;-74
2022/03/27 13:05:10;;;;;;;;;;;19.50;99.90;;;;;;5013588;28;20264;-74
2022/03/27 13:07:57;;;;;;;;;;;19.50;99.90;;;;;;5014154;28;19924;-73
2022/03/27 13:10:24;;;;;;;;;;;19.40;99.90;;;;;;5014011;28;19909;-73
2022/03/27 13:13:02;;;;;;;;;;;19.40;99.90;;;;;;5013698;28;20004;-73
2022/03/27 13:15:35;;;;;;;;;;;19.40;99.90;;;;;;5014067;28;20357;-73
2022/03/27 13:18:09;;;;;;;;;;;19.30;99.90;;;;;;5014160;28;19913;-73
2022/03/27 13:20:36;;;;;;;;;;;19.30;99.90;;;;;;5013696;28;19918;-73
2022/03/27 13:23:04;;;;;;;;;;;19.30;99.90;;;;;;5014056;28;20388;-73
2022/03/27 13:25:31;;;;;;;;;;;19.30;99.90;;;;;;5014045;28;19941;-74
2022/03/27 13:27:58;;;;;;;;;;;19.30;99.90;;;;;;5013750;28;19917;-73
2022/03/27 13:30:25;;;;;;;;;;;19.30;99.90;;;;;;5013463;28;20000;-75
2022/03/27 13:32:51;;;;;;;;;;;19.30;99.90;;;;;;5013809;28;19956;-75
2022/03/27 13:35:18;;;;;;;;;;;19.30;99.90;;;;;;5013767;28;20378;-76
2022/03/27 13:37:45;;;;;;;;;;;19.20;99.90;;;;;;5013888;28;20407;-75
2022/03/27 13:40:12;;;;;;;;;;;19.20;99.90;;;;;;5013759;28;19909;-76
2022/03/27 13:45:24;;;;;;;;;;;19.20;99.90;;;;;;5013713;28;20285;-75
2022/03/27 13:47:51;;;;;;;;;;;19.20;99.90;;;;;;5013588;28;19918;-76
2022/03/27 13:50:17;;;;;;;;;;;19.20;99.90;;;;;;5013660;28;19909;-76
2022/03/27 13:52:44;;;;;;;;;;;19.10;99.90;;;;;;5013571;28;20280;-75
2022/03/27 13:55:11;;;;;;;;;;;19.10;99.90;;;;;;5013469;28;19910;-76
2022/03/27 13:57:37;;;;;;;;;;;19.10;99.90;;;;;;5013807;28;19917;-76
2022/03/27 14:00:04;;;;;;;;;;;19.10;99.90;;;;;;5013610;28;19909;-75
2022/03/27 14:02:31;;;;;;;;;;;19.10;99.90;;;;;;5013331;28;20431;-75
2022/03/27 14:04:58;;;;;;;;;;;19.10;99.90;;;;;;5013554;28;19909;-75
2022/03/27 14:07:25;;;;;;;;;;;19.10;99.90;;;;;;5013348;28;19921;-76
2022/03/27 14:09:51;;;;;;;;;;;19.00;99.90;;;;;;5013398;28;19909;-76
2022/03/27 14:12:18;;;;;;;;;;;19.00;99.90;;;;;;5013125;28;19917;-76
2022/03/27 14:14:44;;;;;;;;;;;19.00;99.90;;;;;;5013205;28;19909;-76
2022/03/27 14:17:11;;;;;;;;;;;19.00;99.90;;;;;;5013423;28;19910;-76
2022/03/27 14:19:38;;;;;;;;;;;19.00;99.90;;;;;;5013277;28;19909;-75
2022/03/27 14:22:05;;;;;;;;;;;18.90;99.90;;;;;;5013154;28;20020;-75
2022/03/27 14:24:31;;;;;;;;;;;19.00;99.90;;;;;;5015089;28;20332;-76
2022/03/27 14:26:58;;;;;;;;;;;18.90;99.90;;;;;;5017219;28;20363;-75
2022/03/27 14:29:25;;;;;;;;;;;18.90;99.90;;;;;;5020212;28;19968;-74
2022/03/27 14:31:52;;;;;;;;;;;18.90;99.90;;;;;;5031498;28;19956;-75
2022/03/27 14:34:21;;;;;;;;;;;19.00;99.90;;;;;;5020629;28;19918;-74
2022/03/27 14:36:48;;;;;;;;;;;19.00;99.90;;;;;;5022440;28;19976;-75